sensor_id;sensor_type;location;lat;lon;timestamp;temperature;humidity
4354;DHT22;11018;51.258;6.806;2023-11-21T00:02:13;8.90;99.90
4354;DHT22;11018;51.258;6.806;2023-11-21T00:04:39;8.80;99.90
4354;DHT22;11018;51.258;6.806;2023-11-21T00:07:04;8.70;99.90
4354;DHT22;11018;51.258;6.806;2023-11-21T00:09:31;8.70;99.90
4354;DHT22;11018;51.258;6.806;2023-11-21T00:11:57;8.70;99.90
4354;DHT22;11018;51.258;6.806;2023-11-21T00:14:24;8.80;99.90
4354;DHT22;11018;51.258;6.806;2023-11-21T00:16:50;8.80;99.90
4354;DHT22;11018;51.258;6.806;2023-11-21T00:19:16;9.00;99.90
4354;DHT22;11018;51.258;6.806;2023-11-21T00:21:42;9.40;98.70
4354;DHT22;11018;51.258;6.806;2023-11-21T00:24:10;9.60;89.70
4354;DHT22;11018;51.258;6.806;2023-11-21T00:26:35;9.60;90.80
4354;DHT22;11018;51.258;6.806;2023-11-21T00:29:03;9.60;91.10
4354;DHT22;11018;51.258;6.806;2023-11-21T00:31:29;9.70;89.70
4354;DHT22;11018;51.258;6.806;2023-11-21T00:33:56;9.70;88.70
4354;DHT22;11018;51.258;6.806;2023-11-21T00:36:21;9.80;86.10
4354;DHT22;11018;51.258;6.806;2023-11-21T00:38:47;9.90;84.20
4354;DHT22;11018;51.258;6.806;2023-11-21T00:41:13;9.90;83.20
4354;DHT22;11018;51.258;6.806;2023-11-21T00:43:39;9.90;84.00
4354;DHT22;11018;51.258;6.806;2023-11-21T00:46:05;9.90;85.50
4354;DHT22;11018;51.258;6.806;2023-11-21T00:48:34;9.90;84.90
4354;DHT22;11018;51.258;6.806;2023-11-21T00:50:59;10.00;84.60
4354;DHT22;11018;51.258;6.806;2023-11-21T00:53:25;9.90;84.50
4354;DHT22;11018;51.258;6.806;2023-11-21T00:55:51;9.80;85.70
4354;DHT22;11018;51.258;6.806;2023-11-21T00:58:24;9.60;90.50
4354;DHT22;11018;51.258;6.806;2023-11-21T01:00:50;9.50;93.80
4354;DHT22;11018;51.258;6.806;2023-11-21T01:03:15;9.50;97.30
4354;DHT22;11018;51.258;6.806;2023-11-21T01:05:41;9.40;96.20
4354;DHT22;11018;51.258;6.806;2023-11-21T01:08:06;9.20;98.40
4354;DHT22;11018;51.258;6.806;2023-11-21T01:10:32;9.00;99.40
4354;DHT22;11018;51.258;6.806;2023-11-21T01:12:59;8.90;99.90
4354;DHT22;11018;51.258;6.806;2023-11-21T01:15:25;8.70;99.90
4354;DHT22;11018;51.258;6.806;2023-11-21T01:17:51;8.60;99.90
4354;DHT22;11018;51.258;6.806;2023-11-21T01:20:17;8.50;99.90
4354;DHT22;11018;51.258;6.806;2023-11-21T01:22:43;8.50;99.90
4354;DHT22;11018;51.258;6.806;2023-11-21T01:25:09;8.40;99.90
4354;DHT22;11018;51.258;6.806;2023-11-21T01:27:36;8.30;99.90
4354;DHT22;11018;51.258;6.806;2023-11-21T01:30:03;8.20;99.90
4354;DHT22;11018;51.258;6.806;2023-11-21T01:32:29;8.10;99.90
4354;DHT22;11018;51.258;6.806;2023-11-21T01:34:54;8.10;99.90
4354;DHT22;11018;51.258;6.806;2023-11-21T01:37:23;8.00;99.90
4354;DHT22;11018;51.258;6.806;2023-11-21T01:39:49;7.80;99.90
4354;DHT22;11018;51.258;6.806;2023-11-21T01:42:15;7.80;99.90
4354;DHT22;11018;51.258;6.806;2023-11-21T01:44:40;7.90;99.90
4354;DHT22;11018;51.258;6.806;2023-11-21T01:47:06;7.90;99.90
4354;DHT22;11018;51.258;6.806;2023-11-21T01:49:34;7.90;99.90
4354;DHT22;11018;51.258;6.806;2023-11-21T01:52:00;7.90;99.90
4354;DHT22;11018;51.258;6.806;2023-11-21T01:54:25;8.00;99.90
4354;DHT22;11018;51.258;6.806;2023-11-21T01:56:51;8.00;99.90
4354;DHT22;11018;51.258;6.806;2023-11-21T01:59:21;8.00;99.90
4354;DHT22;11018;51.258;6.806;2023-11-21T02:01:47;8.10;99.90
4354;DHT22;11018;51.258;6.806;2023-11-21T02:04:13;8.10;99.90
4354;DHT22;11018;51.258;6.806;2023-11-21T02:06:39;8.20;99.90
4354;DHT22;11018;51.258;6.806;2023-11-21T02:09:04;8.20;99.90
4354;DHT22;11018;51.258;6.806;2023-11-21T02:11:30;8.30;99.90
4354;DHT22;11018;51.258;6.806;2023-11-21T02:13:59;8.30;99.90
4354;DHT22;11018;51.258;6.806;2023-11-21T02:16:26;8.40;99.90
4354;DHT22;11018;51.258;6.806;2023-11-21T02:18:52;8.40;99.90
4354;DHT22;11018;51.258;6.806;2023-11-21T02:21:18;8.50;99.90
4354;DHT22;11018;51.258;6.806;2023-11-21T02:23:44;8.50;99.90
4354;DHT22;11018;51.258;6.806;2023-11-21T02:26:12;8.60;99.90
4354;DHT22;11018;51.258;6.806;2023-11-21T02:28:38;8.60;99.90
4354;DHT22;11018;51.258;6.806;2023-11-21T02:31:05;8.60;99.90
4354;DHT22;11018;51.258;6.806;2023-11-21T02:33:31;8.70;99.90
4354;DHT22;11018;51.258;6.806;2023-11-21T02:36:00;8.70;99.90
4354;DHT22;11018;51.258;6.806;2023-11-21T02:38:26;8.70;99.90
4354;DHT22;11018;51.258;6.806;2023-11-21T02:40:51;8.70;99.90
4354;DHT22;11018;51.258;6.806;2023-11-21T02:43:17;8.70;99.90
4354;DHT22;11018;51.258;6.806;2023-11-21T02:45:42;8.70;99.90
4354;DHT22;11018;51.258;6.806;2023-11-21T02:48:08;8.70;99.90
4354;DHT22;11018;51.258;6.806;2023-11-21T02:50:34;8.80;99.90
4354;DHT22;11018;51.258;6.806;2023-11-21T02:53:00;8.80;99.90
4354;DHT22;11018;51.258;6.806;2023-11-21T02:55:27;8.80;99.90
4354;DHT22;11018;51.258;6.806;2023-11-21T02:57:53;8.80;99.90
4354;DHT22;11018;51.258;6.806;2023-11-21T03:00:19;8.80;99.90
4354;DHT22;11018;51.258;6.806;2023-11-21T03:02:45;8.90;99.90
4354;DHT22;11018;51.258;6.806;2023-11-21T03:05:10;8.90;99.90
4354;DHT22;11018;51.258;6.806;2023-11-21T03:07:37;8.90;99.90
4354;DHT22;11018;51.258;6.806;2023-11-21T03:10:03;8.90;99.90
4354;DHT22;11018;51.258;6.806;2023-11-21T03:12:30;8.90;99.90
4354;DHT22;11018;51.258;6.806;2023-11-21T03:14:55;8.90;99.90
4354;DHT22;11018;51.258;6.806;2023-11-21T03:17:21;8.90;99.90
4354;DHT22;11018;51.258;6.806;2023-11-21T03:19:47;9.00;99.90
4354;DHT22;11018;51.258;6.806;2023-11-21T03:22:12;8.90;99.90
4354;DHT22;11018;51.258;6.806;2023-11-21T03:24:38;8.90;99.90
4354;DHT22;11018;51.258;6.806;2023-11-21T03:27:04;8.90;99.90
4354;DHT22;11018;51.258;6.806;2023-11-21T03:29:30;8.80;99.90
4354;DHT22;11018;51.258;6.806;2023-11-21T03:31:55;8.90;99.90
4354;DHT22;11018;51.258;6.806;2023-11-21T03:34:26;8.80;99.90
4354;DHT22;11018;51.258;6.806;2023-11-21T03:36:52;8.90;99.90
4354;DHT22;11018;51.258;6.806;2023-11-21T03:39:20;8.90;99.90
4354;DHT22;11018;51.258;6.806;2023-11-21T03:41:46;8.90;99.90
4354;DHT22;11018;51.258;6.806;2023-11-21T03:44:11;9.00;99.90
4354;DHT22;11018;51.258;6.806;2023-11-21T03:46:37;9.00;99.90
4354;DHT22;11018;51.258;6.806;2023-11-21T03:49:02;9.10;99.90
4354;DHT22;11018;51.258;6.806;2023-11-21T03:51:28;9.50;99.20
4354;DHT22;11018;51.258;6.806;2023-11-21T03:53:54;9.60;94.40
4354;DHT22;11018;51.258;6.806;2023-11-21T03:56:19;9.70;90.00
4354;DHT22;11018;51.258;6.806;2023-11-21T03:58:47;9.50;89.60
4354;DHT22;11018;51.258;6.806;2023-11-21T04:01:23;9.40;93.20
4354;DHT22;11018;51.258;6.806;2023-11-21T04:03:50;9.30;93.70
4354;DHT22;11018;51.258;6.806;2023-11-21T04:06:16;9.20;95.40
4354;DHT22;11018;51.258;6.806;2023-11-21T04:08:43;9.10;96.90
4354;DHT22;11018;51.258;6.806;2023-11-21T04:11:10;9.00;99.00
4354;DHT22;11018;51.258;6.806;2023-11-21T04:13:37;9.00;99.90
4354;DHT22;11018;51.258;6.806;2023-11-21T04:16:04;8.90;99.90
4354;DHT22;11018;51.258;6.806;2023-11-21T04:18:30;9.00;99.90
4354;DHT22;11018;51.258;6.806;2023-11-21T04:20:56;9.00;99.90
4354;DHT22;11018;51.258;6.806;2023-11-21T04:23:21;9.10;99.90
4354;DHT22;11018;51.258;6.806;2023-11-21T04:25:47;9.00;99.90
4354;DHT22;11018;51.258;6.806;2023-11-21T04:28:12;9.00;99.90
4354;DHT22;11018;51.258;6.806;2023-11-21T04:30:38;9.10;99.90
4354;DHT22;11018;51.258;6.806;2023-11-21T04:33:05;9.10;99.90
4354;DHT22;11018;51.258;6.806;2023-11-21T04:35:30;9.10;99.90
4354;DHT22;11018;51.258;6.806;2023-11-21T04:37:56;9.10;99.90
4354;DHT22;11018;51.258;6.806;2023-11-21T04:40:22;9.10;99.90
4354;DHT22;11018;51.258;6.806;2023-11-21T04:42:48;9.10;99.90
4354;DHT22;11018;51.258;6.806;2023-11-21T04:45:13;9.10;99.90
4354;DHT22;11018;51.258;6.806;2023-11-21T04:47:39;9.00;99.90
4354;DHT22;11018;51.258;6.806;2023-11-21T04:50:05;9.00;99.90
4354;DHT22;11018;51.258;6.806;2023-11-21T04:52:31;9.00;99.90
4354;DHT22;11018;51.258;6.806;2023-11-21T04:54:58;8.90;99.90
4354;DHT22;11018;51.258;6.806;2023-11-21T04:57:26;8.90;99.90
4354;DHT22;11018;51.258;6.806;2023-11-21T04:59:53;8.90;99.90
4354;DHT22;11018;51.258;6.806;2023-11-21T05:02:19;8.90;99.90
4354;DHT22;11018;51.258;6.806;2023-11-21T05:04:46;8.80;99.90
4354;DHT22;11018;51.258;6.806;2023-11-21T05:07:12;8.90;99.90
4354;DHT22;11018;51.258;6.806;2023-11-21T05:09:42;8.90;99.90
4354;DHT22;11018;51.258;6.806;2023-11-21T05:12:09;9.00;99.90
4354;DHT22;11018;51.258;6.806;2023-11-21T05:14:35;9.00;99.90
4354;DHT22;11018;51.258;6.806;2023-11-21T05:17:00;9.20;99.90
4354;DHT22;11018;51.258;6.806;2023-11-21T05:19:26;9.20;99.90
4354;DHT22;11018;51.258;6.806;2023-11-21T05:21:52;9.20;99.90
4354;DHT22;11018;51.258;6.806;2023-11-21T05:24:18;9.20;99.90
4354;DHT22;11018;51.258;6.806;2023-11-21T05:26:43;9.20;99.90
4354;DHT22;11018;51.258;6.806;2023-11-21T05:29:09;9.20;99.90
4354;DHT22;11018;51.258;6.806;2023-11-21T05:31:36;9.30;99.90
4354;DHT22;11018;51.258;6.806;2023-11-21T05:34:03;9.30;99.90
4354;DHT22;11018;51.258;6.806;2023-11-21T05:36:30;9.30;99.90
4354;DHT22;11018;51.258;6.806;2023-11-21T05:38:56;9.30;99.90
4354;DHT22;11018;51.258;6.806;2023-11-21T05:41:22;9.50;99.10
4354;DHT22;11018;51.258;6.806;2023-11-21T05:43:47;9.40;95.90
4354;DHT22;11018;51.258;6.806;2023-11-21T05:46:13;9.40;96.70
4354;DHT22;11018;51.258;6.806;2023-11-21T05:48:39;9.40;95.30
4354;DHT22;11018;51.258;6.806;2023-11-21T05:51:07;9.60;94.60
4354;DHT22;11018;51.258;6.806;2023-11-21T05:53:34;9.60;93.10
4354;DHT22;11018;51.258;6.806;2023-11-21T05:56:00;9.50;94.80
4354;DHT22;11018;51.258;6.806;2023-11-21T05:58:26;9.50;96.70
4354;DHT22;11018;51.258;6.806;2023-11-21T06:00:51;9.70;94.50
4354;DHT22;11018;51.258;6.806;2023-11-21T06:03:17;10.00;85.90
4354;DHT22;11018;51.258;6.806;2023-11-21T06:05:43;10.10;83.90
4354;DHT22;11018;51.258;6.806;2023-11-21T06:08:09;10.10;82.90
4354;DHT22;11018;51.258;6.806;2023-11-21T06:10:36;10.00;84.90
4354;DHT22;11018;51.258;6.806;2023-11-21T06:13:01;9.80;86.60
4354;DHT22;11018;51.258;6.806;2023-11-21T06:15:29;9.70;88.60
4354;DHT22;11018;51.258;6.806;2023-11-21T06:17:54;9.70;89.20
4354;DHT22;11018;51.258;6.806;2023-11-21T06:20:21;9.70;91.20
4354;DHT22;11018;51.258;6.806;2023-11-21T06:22:49;9.80;88.80
4354;DHT22;11018;51.258;6.806;2023-11-21T06:25:15;9.80;87.90
4354;DHT22;11018;51.258;6.806;2023-11-21T06:27:46;9.80;87.70
4354;DHT22;11018;51.258;6.806;2023-11-21T06:30:13;9.80;87.50
4354;DHT22;11018;51.258;6.806;2023-11-21T06:32:40;9.80;86.90
4354;DHT22;11018;51.258;6.806;2023-11-21T06:35:07;9.80;87.60
4354;DHT22;11018;51.258;6.806;2023-11-21T06:37:34;9.80;86.90
4354;DHT22;11018;51.258;6.806;2023-11-21T06:40:00;9.70;87.90
4354;DHT22;11018;51.258;6.806;2023-11-21T06:42:26;9.70;88.50
4354;DHT22;11018;51.258;6.806;2023-11-21T06:44:52;9.60;88.30
4354;DHT22;11018;51.258;6.806;2023-11-21T06:47:19;9.60;90.10
4354;DHT22;11018;51.258;6.806;2023-11-21T06:49:46;9.60;92.20
4354;DHT22;11018;51.258;6.806;2023-11-21T06:52:13;9.90;84.60
4354;DHT22;11018;51.258;6.806;2023-11-21T06:54:39;10.00;82.80
4354;DHT22;11018;51.258;6.806;2023-11-21T06:57:05;9.90;82.90
4354;DHT22;11018;51.258;6.806;2023-11-21T06:59:30;9.90;83.30
4354;DHT22;11018;51.258;6.806;2023-11-21T07:01:56;9.80;85.30
4354;DHT22;11018;51.258;6.806;2023-11-21T07:04:21;9.80;84.90
4354;DHT22;11018;51.258;6.806;2023-11-21T07:06:47;9.80;86.30
4354;DHT22;11018;51.258;6.806;2023-11-21T07:09:13;9.80;84.90
4354;DHT22;11018;51.258;6.806;2023-11-21T07:11:38;9.80;84.80
4354;DHT22;11018;51.258;6.806;2023-11-21T07:14:04;9.70;86.60
4354;DHT22;11018;51.258;6.806;2023-11-21T07:16:36;9.70;86.60
4354;DHT22;11018;51.258;6.806;2023-11-21T07:19:05;9.70;87.10
4354;DHT22;11018;51.258;6.806;2023-11-21T07:21:34;9.70;88.30
4354;DHT22;11018;51.258;6.806;2023-11-21T07:24:00;9.70;87.70
4354;DHT22;11018;51.258;6.806;2023-11-21T07:26:27;9.70;87.70
4354;DHT22;11018;51.258;6.806;2023-11-21T07:28:53;9.70;87.30
4354;DHT22;11018;51.258;6.806;2023-11-21T07:31:18;9.70;86.60
4354;DHT22;11018;51.258;6.806;2023-11-21T07:33:45;9.60;88.20
4354;DHT22;11018;51.258;6.806;2023-11-21T07:36:13;9.60;89.50
4354;DHT22;11018;51.258;6.806;2023-11-21T07:38:39;9.70;89.30
4354;DHT22;11018;51.258;6.806;2023-11-21T07:41:05;9.70;90.60
4354;DHT22;11018;51.258;6.806;2023-11-21T07:43:34;9.70;88.90
4354;DHT22;11018;51.258;6.806;2023-11-21T07:46:03;9.60;93.00
4354;DHT22;11018;51.258;6.806;2023-11-21T07:48:33;9.80;89.60
4354;DHT22;11018;51.258;6.806;2023-11-21T07:50:58;9.90;85.90
4354;DHT22;11018;51.258;6.806;2023-11-21T07:53:24;10.00;84.90
4354;DHT22;11018;51.258;6.806;2023-11-21T07:56:04;10.00;81.70
4354;DHT22;11018;51.258;6.806;2023-11-21T07:58:30;9.90;82.40
4354;DHT22;11018;51.258;6.806;2023-11-21T08:00:56;9.90;83.60
4354;DHT22;11018;51.258;6.806;2023-11-21T08:03:23;9.90;84.30
4354;DHT22;11018;51.258;6.806;2023-11-21T08:05:49;9.80;85.80
4354;DHT22;11018;51.258;6.806;2023-11-21T08:08:14;9.80;84.60
4354;DHT22;11018;51.258;6.806;2023-11-21T08:10:40;9.80;85.70
4354;DHT22;11018;51.258;6.806;2023-11-21T08:13:07;9.80;87.30
4354;DHT22;11018;51.258;6.806;2023-11-21T08:15:34;9.90;89.20
4354;DHT22;11018;51.258;6.806;2023-11-21T08:18:02;10.10;83.30
4354;DHT22;11018;51.258;6.806;2023-11-21T08:20:28;10.20;82.10
4354;DHT22;11018;51.258;6.806;2023-11-21T08:22:53;10.20;82.00
4354;DHT22;11018;51.258;6.806;2023-11-21T08:25:22;10.40;82.20
4354;DHT22;11018;51.258;6.806;2023-11-21T08:27:47;10.40;84.30
4354;DHT22;11018;51.258;6.806;2023-11-21T08:30:13;10.60;81.30
4354;DHT22;11018;51.258;6.806;2023-11-21T08:32:39;10.70;78.30
4354;DHT22;11018;51.258;6.806;2023-11-21T08:35:07;10.50;77.40
4354;DHT22;11018;51.258;6.806;2023-11-21T08:37:33;10.40;80.90
4354;DHT22;11018;51.258;6.806;2023-11-21T08:40:05;10.50;81.60
4354;DHT22;11018;51.258;6.806;2023-11-21T08:42:35;10.50;81.70
4354;DHT22;11018;51.258;6.806;2023-11-21T08:45:00;10.50;82.20
4354;DHT22;11018;51.258;6.806;2023-11-21T08:47:26;10.60;80.90
4354;DHT22;11018;51.258;6.806;2023-11-21T08:49:52;10.60;78.10
4354;DHT22;11018;51.258;6.806;2023-11-21T08:52:20;10.50;80.60
4354;DHT22;11018;51.258;6.806;2023-11-21T08:54:49;10.50;81.70
4354;DHT22;11018;51.258;6.806;2023-11-21T08:57:21;10.60;78.30
4354;DHT22;11018;51.258;6.806;2023-11-21T08:59:47;10.50;80.60
4354;DHT22;11018;51.258;6.806;2023-11-21T09:02:13;10.60;76.50
4354;DHT22;11018;51.258;6.806;2023-11-21T09:04:38;10.50;78.30
4354;DHT22;11018;51.258;6.806;2023-11-21T09:07:04;10.60;80.10
4354;DHT22;11018;51.258;6.806;2023-11-21T09:09:29;10.50;80.80
4354;DHT22;11018;51.258;6.806;2023-11-21T09:11:55;10.70;79.80
4354;DHT22;11018;51.258;6.806;2023-11-21T09:14:21;11.00;72.50
4354;DHT22;11018;51.258;6.806;2023-11-21T09:16:46;11.00;71.30
4354;DHT22;11018;51.258;6.806;2023-11-21T09:19:12;10.90;73.10
4354;DHT22;11018;51.258;6.806;2023-11-21T09:21:39;10.80;74.30
4354;DHT22;11018;51.258;6.806;2023-11-21T09:24:05;10.80;75.30
4354;DHT22;11018;51.258;6.806;2023-11-21T09:26:31;10.80;76.40
4354;DHT22;11018;51.258;6.806;2023-11-21T09:28:56;10.80;74.70
4354;DHT22;11018;51.258;6.806;2023-11-21T09:31:22;10.80;74.60
4354;DHT22;11018;51.258;6.806;2023-11-21T09:33:49;10.80;75.70
4354;DHT22;11018;51.258;6.806;2023-11-21T09:36:14;10.80;77.00
4354;DHT22;11018;51.258;6.806;2023-11-21T09:38:40;11.30;67.80
4354;DHT22;11018;51.258;6.806;2023-11-21T09:41:15;11.50;64.00
4354;DHT22;11018;51.258;6.806;2023-11-21T09:43:45;11.30;66.20
4354;DHT22;11018;51.258;6.806;2023-11-21T09:46:12;11.20;69.30
4354;DHT22;11018;51.258;6.806;2023-11-21T09:48:46;11.40;66.10
4354;DHT22;11018;51.258;6.806;2023-11-21T09:51:15;11.40;63.60
4354;DHT22;11018;51.258;6.806;2023-11-21T09:53:44;11.30;65.10
4354;DHT22;11018;51.258;6.806;2023-11-21T09:56:10;11.20;67.70
4354;DHT22;11018;51.258;6.806;2023-11-21T09:58:36;11.20;68.30
4354;DHT22;11018;51.258;6.806;2023-11-21T10:01:02;11.10;70.20
4354;DHT22;11018;51.258;6.806;2023-11-21T10:03:29;11.20;72.00
4354;DHT22;11018;51.258;6.806;2023-11-21T10:05:56;11.40;67.40
4354;DHT22;11018;51.258;6.806;2023-11-21T10:08:27;11.40;67.20
4354;DHT22;11018;51.258;6.806;2023-11-21T10:10:54;11.60;65.20
4354;DHT22;11018;51.258;6.806;2023-11-21T10:13:20;11.40;66.00
4354;DHT22;11018;51.258;6.806;2023-11-21T10:15:51;11.40;65.90
4354;DHT22;11018;51.258;6.806;2023-11-21T10:18:17;11.60;65.80
4354;DHT22;11018;51.258;6.806;2023-11-21T10:20:43;11.60;66.20
4354;DHT22;11018;51.258;6.806;2023-11-21T10:23:10;11.50;67.50
4354;DHT22;11018;51.258;6.806;2023-11-21T10:25:37;11.50;69.20
4354;DHT22;11018;51.258;6.806;2023-11-21T10:28:03;11.40;69.00
4354;DHT22;11018;51.258;6.806;2023-11-21T10:30:36;11.30;70.30
4354;DHT22;11018;51.258;6.806;2023-11-21T10:33:06;11.20;71.20
4354;DHT22;11018;51.258;6.806;2023-11-21T10:35:48;11.20;70.90
4354;DHT22;11018;51.258;6.806;2023-11-21T10:38:20;11.10;72.40
4354;DHT22;11018;51.258;6.806;2023-11-21T10:40:50;11.60;65.70
4354;DHT22;11018;51.258;6.806;2023-11-21T10:43:17;11.60;64.90
4354;DHT22;11018;51.258;6.806;2023-11-21T10:45:43;11.30;65.60
4354;DHT22;11018;51.258;6.806;2023-11-21T10:48:15;11.20;68.50
4354;DHT22;11018;51.258;6.806;2023-11-21T10:50:41;11.10;71.20
4354;DHT22;11018;51.258;6.806;2023-11-21T10:53:07;11.30;70.90
4354;DHT22;11018;51.258;6.806;2023-11-21T10:55:34;11.60;65.10
4354;DHT22;11018;51.258;6.806;2023-11-21T10:58:02;11.60;64.00
4354;DHT22;11018;51.258;6.806;2023-11-21T11:00:30;11.80;60.70
4354;DHT22;11018;51.258;6.806;2023-11-21T11:02:56;11.70;62.30
4354;DHT22;11018;51.258;6.806;2023-11-21T11:05:26;11.50;63.00
4354;DHT22;11018;51.258;6.806;2023-11-21T11:07:59;11.40;64.50
4354;DHT22;11018;51.258;6.806;2023-11-21T11:10:28;11.30;66.90
4354;DHT22;11018;51.258;6.806;2023-11-21T11:12:55;11.30;67.10
4354;DHT22;11018;51.258;6.806;2023-11-21T11:15:21;11.40;68.70
4354;DHT22;11018;51.258;6.806;2023-11-21T11:17:48;11.50;66.10
4354;DHT22;11018;51.258;6.806;2023-11-21T11:20:15;11.40;64.50
4354;DHT22;11018;51.258;6.806;2023-11-21T11:23:35;11.30;65.80
4354;DHT22;11018;51.258;6.806;2023-11-21T11:31:31;11.40;64.40
4354;DHT22;11018;51.258;6.806;2023-11-21T11:34:19;11.40;64.50
4354;DHT22;11018;51.258;6.806;2023-11-21T11:36:51;11.40;64.60
4354;DHT22;11018;51.258;6.806;2023-11-21T11:39:48;11.40;65.10
4354;DHT22;11018;51.258;6.806;2023-11-21T11:42:16;11.50;65.50
4354;DHT22;11018;51.258;6.806;2023-11-21T11:47:23;11.80;63.30
4354;DHT22;11018;51.258;6.806;2023-11-21T11:52:37;12.10;59.10
4354;DHT22;11018;51.258;6.806;2023-11-21T11:55:09;12.40;58.00
4354;DHT22;11018;51.258;6.806;2023-11-21T11:57:35;12.70;54.20
4354;DHT22;11018;51.258;6.806;2023-11-21T12:00:18;13.00;53.60
4354;DHT22;11018;51.258;6.806;2023-11-21T12:03:00;13.40;50.40
4354;DHT22;11018;51.258;6.806;2023-11-21T12:05:29;13.20;48.90
4354;DHT22;11018;51.258;6.806;2023-11-21T12:07:59;13.00;51.40
4354;DHT22;11018;51.258;6.806;2023-11-21T12:10:31;12.80;52.20
4354;DHT22;11018;51.258;6.806;2023-11-21T12:12:58;12.50;53.00
4354;DHT22;11018;51.258;6.806;2023-11-21T12:15:25;12.30;55.70
4354;DHT22;11018;51.258;6.806;2023-11-21T12:17:51;12.20;56.80
4354;DHT22;11018;51.258;6.806;2023-11-21T12:20:22;12.20;58.00
4354;DHT22;11018;51.258;6.806;2023-11-21T12:22:49;12.20;57.60
4354;DHT22;11018;51.258;6.806;2023-11-21T12:25:23;12.10;57.60
4354;DHT22;11018;51.258;6.806;2023-11-21T12:27:50;12.10;58.70
4354;DHT22;11018;51.258;6.806;2023-11-21T12:30:20;12.30;58.40
4354;DHT22;11018;51.258;6.806;2023-11-21T12:32:52;12.40;56.40
4354;DHT22;11018;51.258;6.806;2023-11-21T12:35:19;12.40;55.50
4354;DHT22;11018;51.258;6.806;2023-11-21T12:37:45;12.40;57.50
4354;DHT22;11018;51.258;6.806;2023-11-21T12:40:12;12.40;55.70
4354;DHT22;11018;51.258;6.806;2023-11-21T12:42:41;12.40;57.90
4354;DHT22;11018;51.258;6.806;2023-11-21T12:45:23;12.60;56.90
4354;DHT22;11018;51.258;6.806;2023-11-21T12:47:54;12.70;54.20
4354;DHT22;11018;51.258;6.806;2023-11-21T12:50:24;12.70;54.20
4354;DHT22;11018;51.258;6.806;2023-11-21T12:52:54;12.90;53.00
4354;DHT22;11018;51.258;6.806;2023-11-21T12:55:23;12.90;52.30
4354;DHT22;11018;51.258;6.806;2023-11-21T12:57:53;12.80;53.10
4354;DHT22;11018;51.258;6.806;2023-11-21T13:00:34;12.80;53.90
4354;DHT22;11018;51.258;6.806;2023-11-21T13:03:03;12.70;55.10
4354;DHT22;11018;51.258;6.806;2023-11-21T13:05:32;12.70;55.00
4354;DHT22;11018;51.258;6.806;2023-11-21T13:08:01;12.60;54.80
4354;DHT22;11018;51.258;6.806;2023-11-21T13:10:29;12.30;57.40
4354;DHT22;11018;51.258;6.806;2023-11-21T13:13:00;12.30;58.90
4354;DHT22;11018;51.258;6.806;2023-11-21T13:15:26;12.30;57.30
4354;DHT22;11018;51.258;6.806;2023-11-21T13:17:53;12.20;58.00
4354;DHT22;11018;51.258;6.806;2023-11-21T13:20:19;12.20;57.80
4354;DHT22;11018;51.258;6.806;2023-11-21T13:22:49;12.00;59.70
4354;DHT22;11018;51.258;6.806;2023-11-21T13:25:17;11.80;62.00
4354;DHT22;11018;51.258;6.806;2023-11-21T13:27:45;11.70;62.20
4354;DHT22;11018;51.258;6.806;2023-11-21T13:30:13;11.80;63.70
4354;DHT22;11018;51.258;6.806;2023-11-21T13:32:45;11.80;64.60
4354;DHT22;11018;51.258;6.806;2023-11-21T13:35:17;11.80;61.80
4354;DHT22;11018;51.258;6.806;2023-11-21T13:38:04;11.70;63.20
4354;DHT22;11018;51.258;6.806;2023-11-21T13:40:31;11.70;63.70
4354;DHT22;11018;51.258;6.806;2023-11-21T13:42:59;11.70;64.60
4354;DHT22;11018;51.258;6.806;2023-11-21T13:45:29;11.80;65.00
4354;DHT22;11018;51.258;6.806;2023-11-21T13:47:56;11.80;66.00
4354;DHT22;11018;51.258;6.806;2023-11-21T13:50:26;11.70;67.00
4354;DHT22;11018;51.258;6.806;2023-11-21T13:52:58;11.70;69.30
4354;DHT22;11018;51.258;6.806;2023-11-21T13:55:28;11.70;68.70
4354;DHT22;11018;51.258;6.806;2023-11-21T13:57:54;11.60;70.00
4354;DHT22;11018;51.258;6.806;2023-11-21T14:00:19;11.60;70.70
4354;DHT22;11018;51.258;6.806;2023-11-21T14:03:03;11.60;71.80
4354;DHT22;11018;51.258;6.806;2023-11-21T14:05:34;11.60;71.10
4354;DHT22;11018;51.258;6.806;2023-11-21T14:07:59;11.50;72.20
4354;DHT22;11018;51.258;6.806;2023-11-21T14:10:33;11.40;74.30
4354;DHT22;11018;51.258;6.806;2023-11-21T14:13:05;11.20;76.30
4354;DHT22;11018;51.258;6.806;2023-11-21T14:15:32;11.10;81.20
4354;DHT22;11018;51.258;6.806;2023-11-21T14:17:59;11.00;80.40
4354;DHT22;11018;51.258;6.806;2023-11-21T14:20:27;10.90;84.30
4354;DHT22;11018;51.258;6.806;2023-11-21T14:22:54;10.90;85.20
4354;DHT22;11018;51.258;6.806;2023-11-21T14:25:20;10.90;86.40
4354;DHT22;11018;51.258;6.806;2023-11-21T14:27:47;11.00;83.90
4354;DHT22;11018;51.258;6.806;2023-11-21T14:30:13;11.00;84.00
4354;DHT22;11018;51.258;6.806;2023-11-21T14:32:40;11.00;83.20
4354;DHT22;11018;51.258;6.806;2023-11-21T14:35:06;11.10;81.00
4354;DHT22;11018;51.258;6.806;2023-11-21T14:37:34;11.00;78.90
4354;DHT22;11018;51.258;6.806;2023-11-21T14:40:00;11.00;81.00
4354;DHT22;11018;51.258;6.806;2023-11-21T14:42:26;11.00;81.10
4354;DHT22;11018;51.258;6.806;2023-11-21T14:44:54;11.00;81.20
4354;DHT22;11018;51.258;6.806;2023-11-21T14:47:25;11.10;81.10
4354;DHT22;11018;51.258;6.806;2023-11-21T14:49:52;11.10;80.30
4354;DHT22;11018;51.258;6.806;2023-11-21T14:52:21;11.10;78.90
4354;DHT22;11018;51.258;6.806;2023-11-21T14:55:03;11.20;78.30
4354;DHT22;11018;51.258;6.806;2023-11-21T14:57:57;11.20;76.50
4354;DHT22;11018;51.258;6.806;2023-11-21T15:00:25;11.20;76.50
4354;DHT22;11018;51.258;6.806;2023-11-21T15:02:57;11.10;77.10
4354;DHT22;11018;51.258;6.806;2023-11-21T15:05:22;11.10;76.90
4354;DHT22;11018;51.258;6.806;2023-11-21T15:07:49;11.00;77.40
4354;DHT22;11018;51.258;6.806;2023-11-21T15:10:15;11.10;79.40
4354;DHT22;11018;51.258;6.806;2023-11-21T15:12:41;11.10;79.00
4354;DHT22;11018;51.258;6.806;2023-11-21T15:15:09;11.20;76.70
4354;DHT22;11018;51.258;6.806;2023-11-21T15:17:36;11.10;76.00
4354;DHT22;11018;51.258;6.806;2023-11-21T15:20:03;11.00;75.90
4354;DHT22;11018;51.258;6.806;2023-11-21T15:22:29;11.00;74.20
4354;DHT22;11018;51.258;6.806;2023-11-21T15:24:55;11.00;75.20
4354;DHT22;11018;51.258;6.806;2023-11-21T15:27:21;10.90;75.50
4354;DHT22;11018;51.258;6.806;2023-11-21T15:29:47;10.90;75.10
4354;DHT22;11018;51.258;6.806;2023-11-21T15:32:15;10.90;76.30
4354;DHT22;11018;51.258;6.806;2023-11-21T15:34:40;10.80;76.70
4354;DHT22;11018;51.258;6.806;2023-11-21T15:37:07;10.80;77.00
4354;DHT22;11018;51.258;6.806;2023-11-21T15:39:37;10.80;77.60
4354;DHT22;11018;51.258;6.806;2023-11-21T15:42:04;10.90;76.80
4354;DHT22;11018;51.258;6.806;2023-11-21T15:44:32;10.90;76.50
4354;DHT22;11018;51.258;6.806;2023-11-21T15:46:58;11.00;74.00
4354;DHT22;11018;51.258;6.806;2023-11-21T15:49:24;11.00;72.30
4354;DHT22;11018;51.258;6.806;2023-11-21T15:51:52;11.00;69.10
4354;DHT22;11018;51.258;6.806;2023-11-21T15:54:22;11.00;68.80
4354;DHT22;11018;51.258;6.806;2023-11-21T15:56:51;10.90;68.30
4354;DHT22;11018;51.258;6.806;2023-11-21T15:59:17;10.90;67.30
4354;DHT22;11018;51.258;6.806;2023-11-21T16:01:43;10.90;65.90
4354;DHT22;11018;51.258;6.806;2023-11-21T16:04:13;10.80;67.00
4354;DHT22;11018;51.258;6.806;2023-11-21T16:06:47;10.80;67.60
4354;DHT22;11018;51.258;6.806;2023-11-21T16:09:13;10.80;65.20